createdAt,value
2022-09-11T00:01:40.575Z,6.13
2022-09-11T00:04:09.329Z,5.53
2022-09-11T00:06:37.644Z,5.40
2022-09-11T00:09:07.339Z,6.32
2022-09-11T00:11:37.523Z,5.80
2022-09-11T00:14:07.162Z,5.57
2022-09-11T00:16:37.810Z,5.88
2022-09-11T00:19:08.191Z,6.00
2022-09-11T00:21:36.753Z,5.20
2022-09-11T00:24:05.553Z,5.80
2022-09-11T00:26:33.764Z,4.78
2022-09-11T00:29:02.253Z,5.40
2022-09-11T00:31:32.637Z,5.30
2022-09-11T00:34:01.207Z,4.82
2022-09-11T00:36:32.454Z,5.82
2022-09-11T00:39:01.261Z,5.70
2022-09-11T00:41:31.093Z,5.68
2022-09-11T00:44:03.804Z,5.75
2022-09-11T00:46:38.141Z,5.80
2022-09-11T00:49:15.965Z,5.55
2022-09-11T00:51:46.227Z,5.32
2022-09-11T00:54:17.360Z,6.10
2022-09-11T00:56:45.749Z,6.10
2022-09-11T00:59:14.601Z,5.75
2022-09-11T01:01:46.265Z,5.63
2022-09-11T01:04:14.604Z,5.55
2022-09-11T01:06:42.783Z,5.13
2022-09-11T01:09:11.014Z,5.00
2022-09-11T01:11:50.091Z,5.20
2022-09-11T01:14:39.550Z,5.25
2022-09-11T01:17:22.093Z,6.00
2022-09-11T01:20:34.072Z,4.97
2022-09-11T01:23:26.787Z,5.05
2022-09-11T01:26:14.558Z,4.55
2022-09-11T01:28:51.075Z,4.70
2022-09-11T01:31:25.030Z,4.53
2022-09-11T01:33:59.621Z,4.05
2022-09-11T01:36:34.327Z,4.20
2022-09-11T01:39:04.656Z,4.18
2022-09-11T01:41:40.484Z,4.28
2022-09-11T01:44:14.733Z,4.30
2022-09-11T01:46:47.647Z,4.40
2022-09-11T01:49:21.422Z,5.15
2022-09-11T01:51:53.978Z,4.30
2022-09-11T01:54:25.442Z,4.47
2022-09-11T01:56:56.630Z,4.57
2022-09-11T01:59:32.727Z,4.93
2022-09-11T02:02:06.779Z,4.75
2022-09-11T02:04:38.979Z,4.75
2022-09-11T02:07:11.594Z,4.70
2022-09-11T02:09:43.265Z,4.90
2022-09-11T02:12:14.460Z,5.40
2022-09-11T02:14:46.979Z,5.10
2022-09-11T02:17:24.278Z,5.07
2022-09-11T02:19:53.932Z,5.07
2022-09-11T02:22:22.395Z,5.15
2022-09-11T02:24:50.851Z,5.15
2022-09-11T02:27:22.344Z,5.00
2022-09-11T02:29:52.724Z,5.20
2022-09-11T02:32:21.391Z,4.43
2022-09-11T02:34:50.535Z,4.60
2022-09-11T02:37:31.379Z,5.65
2022-09-11T02:40:13.586Z,4.40
2022-09-11T02:42:54.226Z,4.95
2022-09-11T02:45:35.924Z,4.55
2022-09-11T02:48:18.779Z,5.30
2022-09-11T02:50:55.683Z,5.97
2022-09-11T02:53:33.551Z,5.85
2022-09-11T02:56:08.731Z,7.10
2022-09-11T02:58:41.718Z,7.10
2022-09-11T03:01:11.896Z,7.20
2022-09-11T03:03:40.536Z,7.28
2022-09-11T03:06:12.608Z,7.50
2022-09-11T03:08:41.065Z,7.72
2022-09-11T03:11:10.244Z,6.82
2022-09-11T03:13:39.077Z,7.05
2022-09-11T03:16:08.193Z,6.00
2022-09-11T03:18:37.865Z,5.60
2022-09-11T03:21:06.959Z,6.00
2022-09-11T03:23:35.062Z,5.68
2022-09-11T03:26:03.267Z,5.32
2022-09-11T03:28:32.135Z,5.72
2022-09-11T03:31:00.902Z,5.85
2022-09-11T03:33:29.423Z,5.75
2022-09-11T03:35:59.660Z,6.03
2022-09-11T03:38:28.007Z,6.80
2022-09-11T03:40:56.509Z,6.57
2022-09-11T03:43:24.590Z,6.13
2022-09-11T03:45:53.492Z,6.55
2022-09-11T03:48:21.783Z,6.88
2022-09-11T03:50:50.094Z,6.30
2022-09-11T03:53:19.754Z,6.35
2022-09-11T03:55:50.284Z,6.90
2022-09-11T03:58:19.453Z,7.30
2022-09-11T04:00:47.688Z,7.97
2022-09-11T04:03:16.988Z,7.50
2022-09-11T04:05:56.559Z,6.78
2022-09-11T04:08:26.050Z,7.93
2022-09-11T04:10:58.265Z,8.05
2022-09-11T04:13:30.655Z,8.32
2022-09-11T04:16:03.758Z,8.63
2022-09-11T04:18:32.459Z,8.43
2022-09-11T04:21:00.626Z,8.45
2022-09-11T04:23:30.222Z,9.10
2022-09-11T04:25:58.348Z,8.77
2022-09-11T04:28:26.471Z,8.52
2022-09-11T04:30:54.564Z,9.15
2022-09-11T04:33:22.981Z,9.57
2022-09-11T04:35:51.113Z,9.27
2022-09-11T04:38:19.581Z,9.45
2022-09-11T04:40:50.106Z,10.52
2022-09-11T04:43:18.543Z,9.60
2022-09-11T04:45:46.678Z,10.25
2022-09-11T04:48:14.879Z,10.98
2022-09-11T04:50:42.966Z,11.43
2022-09-11T04:53:11.072Z,11.02
2022-09-11T04:55:39.152Z,11.23
2022-09-11T04:58:10.130Z,12.30
2022-09-11T05:00:38.334Z,10.82
2022-09-11T05:03:06.457Z,11.07
2022-09-11T05:05:34.587Z,11.00
2022-09-11T05:08:03.975Z,10.65
2022-09-11T05:10:32.115Z,11.55
2022-09-11T05:13:00.257Z,10.60
2022-09-11T05:15:31.808Z,11.55
2022-09-11T05:17:59.930Z,11.32
2022-09-11T05:20:27.995Z,13.60
2022-09-11T05:22:56.327Z,13.88
2022-09-11T05:25:25.280Z,14.00
2022-09-11T05:27:54.094Z,14.52
2022-09-11T05:30:22.248Z,14.80
2022-09-11T05:32:55.636Z,15.27
2022-09-11T05:37:58.535Z,14.02
2022-09-11T05:40:26.672Z,14.65
2022-09-11T05:42:54.771Z,14.82
2022-09-11T05:45:22.853Z,16.67
2022-09-11T05:47:54.211Z,15.65
2022-09-11T05:50:25.803Z,17.75
2022-09-11T05:52:54.743Z,16.38
2022-09-11T05:55:22.837Z,20.30
2022-09-11T05:57:53.182Z,17.50
2022-09-11T06:00:21.971Z,22.65
2022-09-11T06:02:50.963Z,16.80
2022-09-11T06:05:19.138Z,21.10
2022-09-11T06:07:48.581Z,21.42
2022-09-11T06:10:16.960Z,20.40
2022-09-11T06:12:45.092Z,22.23
2022-09-11T06:15:30.105Z,21.42
2022-09-11T06:18:01.486Z,15.75
2022-09-11T06:20:29.602Z,14.93
2022-09-11T06:23:00.585Z,13.65
2022-09-11T06:25:28.840Z,13.35
2022-09-11T06:27:56.915Z,16.92
2022-09-11T06:30:25.019Z,18.52
2022-09-11T06:32:56.365Z,19.90
2022-09-11T06:35:24.525Z,22.73
2022-09-11T06:37:53.031Z,18.55
2022-09-11T06:40:22.735Z,18.00
2022-09-11T06:42:50.818Z,18.48
2022-09-11T06:45:19.015Z,18.38
2022-09-11T06:47:47.354Z,23.27
2022-09-11T06:50:15.629Z,26.75
2022-09-11T06:52:44.025Z,23.95
2022-09-11T06:55:14.532Z,19.38
2022-09-11T06:57:44.035Z,16.90
2022-09-11T07:00:13.171Z,17.63
2022-09-11T07:02:42.416Z,17.13
2022-09-11T07:05:12.245Z,17.13
2022-09-11T07:07:41.300Z,15.85
2022-09-11T07:10:11.023Z,17.27
2022-09-11T07:12:39.940Z,16.73
2022-09-11T07:15:11.140Z,16.35
2022-09-11T07:17:39.217Z,16.73
2022-09-11T07:20:09.205Z,16.60
2022-09-11T07:22:37.555Z,17.13
2022-09-11T07:25:07.745Z,17.85
2022-09-11T07:27:36.233Z,16.67
2022-09-11T07:30:04.824Z,17.10
2022-09-11T07:32:34.392Z,16.63
2022-09-11T07:35:03.228Z,15.88
2022-09-11T07:37:31.392Z,17.08
2022-09-11T07:39:59.996Z,16.08
2022-09-11T07:42:28.894Z,15.95
2022-09-11T07:44:57.083Z,16.10
2022-09-11T07:47:25.251Z,15.23
2022-09-11T07:49:54.817Z,16.30
2022-09-11T07:52:22.952Z,15.65
2022-09-11T07:54:52.179Z,15.35
2022-09-11T07:57:21.998Z,15.25
2022-09-11T07:59:50.242Z,15.07
2022-09-11T08:02:18.922Z,16.00
2022-09-11T08:04:47.177Z,15.55
2022-09-11T08:07:17.071Z,15.68
2022-09-11T08:09:45.179Z,15.60
2022-09-11T08:12:13.908Z,14.32
2022-09-11T08:14:42.084Z,15.73
2022-09-11T08:17:10.174Z,13.77
2022-09-11T08:19:38.461Z,13.77
2022-09-11T08:22:06.669Z,14.45
2022-09-11T08:24:36.207Z,14.20
2022-09-11T08:27:06.980Z,14.95
2022-09-11T08:29:35.162Z,14.20
2022-09-11T08:32:04.124Z,12.85
2022-09-11T08:34:32.207Z,12.57
2022-09-11T08:37:00.350Z,14.25
2022-09-11T08:39:28.664Z,13.00
2022-09-11T08:42:03.268Z,12.65
2022-09-11T08:44:39.046Z,13.48
2022-09-11T08:47:14.660Z,12.38
2022-09-11T08:49:44.894Z,12.40
2022-09-11T08:52:16.819Z,11.32
2022-09-11T08:54:47.526Z,12.20
2022-09-11T08:57:22.074Z,11.80
2022-09-11T09:00:04.136Z,10.85
2022-09-11T09:02:50.327Z,11.18
2022-09-11T09:05:28.282Z,10.20
2022-09-11T09:08:09.228Z,10.55
2022-09-11T09:10:48.266Z,10.52
2022-09-11T09:13:31.943Z,9.38
2022-09-11T09:16:09.812Z,10.90
2022-09-11T09:18:41.837Z,8.88
2022-09-11T09:21:15.989Z,9.43
2022-09-11T09:23:49.858Z,8.43
2022-09-11T09:26:20.026Z,8.20
2022-09-11T09:28:52.547Z,7.53
2022-09-11T09:31:23.344Z,9.57
2022-09-11T09:33:57.247Z,9.52
2022-09-11T09:36:31.725Z,10.00
2022-09-11T09:39:00.447Z,8.43
2022-09-11T09:41:57.240Z,9.30
2022-09-11T09:44:42.613Z,9.32
2022-09-11T09:47:12.775Z,8.93
2022-09-11T09:49:43.107Z,9.40
2022-09-11T09:52:19.218Z,9.75
2022-09-11T09:54:56.445Z,9.32
2022-09-11T09:57:27.355Z,9.93
2022-09-11T10:00:02.616Z,10.45
2022-09-11T10:02:41.695Z,10.18
2022-09-11T10:05:20.038Z,9.23
2022-09-11T10:07:50.535Z,9.63
2022-09-11T10:10:30.502Z,8.30
2022-09-11T10:13:19.176Z,8.80
2022-09-11T10:15:51.027Z,9.00
2022-09-11T10:18:46.939Z,9.18
2022-09-11T10:21:21.201Z,8.63
2022-09-11T10:23:52.800Z,8.45
2022-09-11T10:26:25.816Z,9.02
2022-09-11T10:31:24.189Z,6.75
2022-09-11T10:33:56.881Z,7.70
2022-09-11T10:36:27.161Z,6.70
2022-09-11T10:38:57.024Z,7.70
2022-09-11T10:41:26.997Z,8.15
2022-09-11T10:44:00.117Z,7.55
2022-09-11T10:46:38.696Z,7.18
2022-09-11T10:49:19.056Z,6.53
2022-09-11T10:52:02.993Z,7.05
2022-09-11T10:54:44.642Z,6.75
2022-09-11T10:57:19.849Z,6.90
2022-09-11T10:59:59.469Z,6.45
2022-09-11T11:02:33.155Z,6.80
2022-09-11T11:05:06.096Z,6.95
2022-09-11T11:10:24.630Z,6.53
2022-09-11T11:13:03.044Z,6.93
2022-09-11T11:15:41.548Z,6.07
2022-09-11T11:18:23.685Z,6.53
2022-09-11T11:21:01.818Z,6.53
2022-09-11T11:24:00.141Z,6.38
2022-09-11T11:26:59.416Z,6.55
2022-09-11T11:29:56.260Z,5.25
2022-09-11T11:32:40.651Z,5.40
2022-09-11T11:35:22.685Z,5.70
2022-09-11T11:37:54.471Z,4.95
2022-09-11T11:40:30.181Z,4.93
2022-09-11T11:43:01.791Z,5.50
2022-09-11T11:45:36.026Z,6.18
2022-09-11T11:48:13.710Z,6.15
2022-09-11T11:50:48.451Z,5.88
2022-09-11T11:53:26.747Z,5.10
2022-09-11T11:56:03.418Z,5.30
2022-09-11T11:58:41.923Z,5.07
2022-09-11T12:01:18.396Z,5.88
2022-09-11T12:03:51.911Z,5.32
2022-09-11T12:06:21.552Z,5.18
2022-09-11T12:08:51.842Z,4.93
2022-09-11T12:11:27.206Z,5.30
2022-09-11T12:13:59.183Z,5.22
2022-09-11T12:16:31.742Z,4.90
2022-09-11T12:19:14.243Z,3.95
2022-09-11T12:22:22.412Z,4.13
2022-09-11T12:24:58.793Z,4.20
2022-09-11T12:28:10.347Z,4.95
2022-09-11T12:31:00.845Z,3.97
2022-09-11T12:33:55.499Z,3.92
2022-09-11T12:36:55.005Z,3.78
2022-09-11T12:39:33.180Z,3.90
2022-09-11T12:42:39.755Z,3.88
2022-09-11T12:45:33.005Z,4.10
2022-09-11T12:48:07.640Z,3.85
2022-09-11T12:50:36.449Z,4.00
2022-09-11T12:53:08.824Z,4.03
2022-09-11T12:55:40.717Z,3.97
2022-09-11T12:58:24.550Z,3.80
2022-09-11T13:01:01.878Z,3.40
2022-09-11T13:03:31.275Z,4.15
2022-09-11T13:06:02.182Z,3.42
2022-09-11T13:08:35.951Z,3.40
2022-09-11T13:11:36.091Z,3.10
2022-09-11T13:14:05.268Z,3.13
2022-09-11T13:16:35.175Z,3.08
2022-09-11T13:19:13.446Z,3.20
2022-09-11T13:21:42.923Z,2.80
2022-09-11T13:24:26.878Z,2.47
2022-09-11T13:26:58.299Z,2.42
2022-09-11T13:29:29.227Z,4.75
2022-09-11T13:31:58.731Z,4.63
2022-09-11T13:34:30.233Z,3.53
2022-09-11T13:36:59.767Z,5.63
2022-09-11T13:39:29.623Z,3.33
2022-09-11T13:42:02.822Z,2.72
2022-09-11T13:44:40.678Z,2.85
2022-09-11T13:47:20.248Z,2.40
2022-09-11T13:49:52.764Z,3.17
2022-09-11T13:52:23.902Z,2.67
2022-09-11T13:54:56.221Z,2.83
2022-09-11T13:57:25.775Z,2.92
2022-09-11T13:59:56.889Z,2.88
2022-09-11T14:02:46.270Z,2.75
2022-09-11T14:05:20.795Z,3.00
2022-09-11T14:07:58.848Z,3.65
2022-09-11T14:10:33.939Z,3.42
2022-09-11T14:13:14.127Z,4.10
2022-09-11T14:15:44.976Z,3.78
2022-09-11T14:18:22.015Z,4.18
2022-09-11T14:20:50.298Z,4.60
2022-09-11T14:23:24.014Z,4.90
2022-09-11T14:26:10.184Z,4.40
2022-09-11T14:28:51.503Z,3.85
2022-09-11T14:31:35.209Z,3.85
2022-09-11T14:34:20.911Z,3.78
2022-09-11T14:36:53.796Z,3.50
2022-09-11T14:39:32.116Z,4.22
2022-09-11T14:42:02.412Z,4.47
2022-09-11T14:44:33.947Z,4.53
2022-09-11T14:47:02.077Z,4.03
2022-09-11T14:49:30.797Z,4.43
2022-09-11T14:52:00.244Z,4.47
2022-09-11T14:54:31.192Z,4.45
2022-09-11T14:57:01.222Z,4.07
2022-09-11T14:59:30.123Z,4.30
2022-09-11T15:01:59.619Z,3.80
2022-09-11T15:04:29.600Z,3.97
2022-09-11T15:06:59.815Z,3.67
2022-09-11T15:09:28.054Z,3.33
2022-09-11T15:11:56.217Z,3.72
2022-09-11T15:14:52.044Z,3.40
2022-09-11T15:17:15.818Z,3.35
2022-09-11T15:19:45.842Z,4.03
2022-09-11T15:22:14.465Z,3.17
2022-09-11T15:24:42.763Z,3.33
2022-09-11T15:27:11.488Z,3.42
2022-09-11T15:29:42.568Z,3.80
2022-09-11T15:32:11.422Z,2.90
2022-09-11T15:34:42.438Z,2.80
2022-09-11T15:37:11.726Z,3.30
2022-09-11T15:39:40.456Z,3.00
2022-09-11T15:42:09.070Z,2.97
2022-09-11T15:44:38.675Z,3.17
2022-09-11T15:47:08.958Z,2.67
2022-09-11T15:49:41.247Z,2.65
2022-09-11T15:52:09.353Z,3.08
2022-09-11T15:54:37.683Z,3.22
2022-09-11T15:57:05.967Z,3.05
2022-09-11T15:59:34.046Z,2.97
2022-09-11T16:02:02.379Z,3.17
2022-09-11T16:04:33.386Z,3.17
2022-09-11T16:07:01.550Z,3.22
2022-09-11T16:09:31.725Z,3.75
2022-09-11T16:12:01.753Z,3.33
2022-09-11T16:14:32.793Z,3.00
2022-09-11T16:17:02.334Z,3.40
2022-09-11T16:19:32.634Z,3.30
2022-09-11T16:22:02.478Z,3.13
2022-09-11T16:24:35.651Z,3.10
2022-09-11T16:27:05.774Z,3.05
2022-09-11T16:30:08.944Z,2.80
2022-09-11T16:32:29.356Z,2.95
2022-09-11T16:34:59.680Z,3.47
2022-09-11T16:37:31.045Z,3.08
2022-09-11T16:39:59.207Z,3.08
2022-09-11T16:42:27.319Z,3.00
2022-09-11T16:44:55.458Z,3.63
2022-09-11T16:47:23.932Z,3.92
2022-09-11T16:50:09.176Z,3.83
2022-09-11T16:52:39.077Z,3.15
2022-09-11T16:55:09.817Z,3.17
2022-09-11T16:57:38.608Z,2.85
2022-09-11T17:00:08.688Z,3.05
2022-09-11T17:02:37.482Z,3.17
2022-09-11T17:05:06.047Z,4.00
2022-09-11T17:07:34.171Z,3.58
2022-09-11T17:10:03.862Z,3.28
2022-09-11T17:12:32.276Z,3.28
2022-09-11T17:15:00.525Z,3.53
2022-09-11T17:17:28.588Z,3.35
2022-09-11T17:19:56.671Z,3.15
2022-09-11T17:22:24.879Z,3.38
2022-09-11T17:24:53.256Z,2.88
2022-09-11T17:27:23.214Z,2.97
2022-09-11T17:29:51.363Z,2.97
2022-09-11T17:32:29.161Z,2.67
2022-09-11T17:34:58.441Z,2.67
2022-09-11T17:37:27.555Z,2.80
2022-09-11T17:39:55.946Z,2.83
2022-09-11T17:42:25.742Z,2.85
2022-09-11T17:44:54.028Z,2.70
2022-09-11T17:47:22.734Z,2.83
2022-09-11T17:49:51.046Z,2.90
2022-09-11T17:52:20.375Z,2.40
2022-09-11T17:54:49.023Z,2.65
2022-09-11T17:57:17.255Z,2.80
2022-09-11T17:59:50.054Z,2.85
2022-09-11T18:02:19.819Z,3.28
2022-09-11T18:04:50.824Z,3.17
2022-09-11T18:07:19.906Z,3.05
2022-09-11T18:09:48.059Z,2.85
2022-09-11T18:12:16.612Z,2.53
2022-09-11T18:14:46.040Z,2.72
2022-09-11T18:17:14.258Z,2.60
2022-09-11T18:19:42.482Z,2.80
2022-09-11T18:22:10.704Z,2.50
2022-09-11T18:24:39.918Z,2.47
2022-09-11T18:27:09.784Z,2.80
2022-09-11T18:29:39.928Z,2.88
2022-09-11T18:32:10.250Z,3.33
2022-09-11T18:34:38.645Z,2.80
2022-09-11T18:37:07.214Z,3.42
2022-09-11T18:39:35.427Z,3.03
2022-09-11T18:42:06.240Z,3.45
2022-09-11T18:44:34.492Z,2.95
2022-09-11T18:47:02.573Z,3.25
2022-09-11T18:49:32.127Z,3.22
2022-09-11T18:52:00.621Z,4.03
2022-09-11T18:54:30.102Z,3.15
2022-09-11T18:57:00.234Z,3.15
2022-09-11T18:59:28.719Z,3.22
2022-09-11T19:01:57.191Z,3.20
2022-09-11T19:04:26.220Z,2.95
2022-09-11T19:06:55.714Z,3.47
2022-09-11T19:09:23.786Z,3.42
2022-09-11T19:11:53.938Z,2.80
2022-09-11T19:14:22.687Z,3.05
2022-09-11T19:16:51.686Z,3.08
2022-09-11T19:19:20.138Z,2.95
2022-09-11T19:21:48.646Z,2.90
2022-09-11T19:24:19.123Z,3.08
2022-09-11T19:26:47.674Z,2.88
2022-09-11T19:29:16.017Z,3.60
2022-09-11T19:31:44.371Z,3.20
2022-09-11T19:34:14.026Z,3.30
2022-09-11T19:36:42.256Z,3.40
2022-09-11T19:39:12.498Z,3.53
2022-09-11T19:41:45.765Z,3.50
2022-09-11T19:46:46.307Z,2.63
2022-09-11T19:49:14.892Z,3.25
2022-09-11T19:51:45.028Z,2.83
2022-09-11T19:54:14.646Z,3.42
2022-09-11T19:56:45.096Z,2.88
2022-09-11T19:59:15.323Z,3.40
2022-09-11T20:01:44.189Z,2.92
2022-09-11T20:04:13.608Z,3.92
2022-09-11T20:06:41.763Z,3.42
2022-09-11T20:09:30.409Z,3.40
2022-09-11T20:12:01.561Z,5.30
2022-09-11T20:14:30.389Z,3.92
2022-09-11T20:17:00.417Z,3.60
2022-09-11T20:19:28.908Z,3.47
2022-09-11T20:21:57.059Z,3.72
2022-09-11T20:24:25.316Z,3.65
2022-09-11T20:26:54.784Z,3.30
2022-09-11T20:29:24.421Z,3.40
2022-09-11T20:31:54.055Z,3.78
2022-09-11T20:34:28.089Z,3.63
2022-09-11T20:37:00.870Z,3.78
2022-09-11T20:39:29.282Z,3.88
2022-09-11T20:41:57.555Z,4.00
2022-09-11T20:44:27.083Z,3.67
2022-09-11T20:46:55.244Z,3.40
2022-09-11T20:49:23.331Z,3.85
2022-09-11T20:51:51.544Z,3.75
2022-09-11T20:54:19.618Z,3.60
2022-09-11T20:56:48.077Z,3.80
2022-09-11T20:59:16.531Z,3.63
2022-09-11T21:01:46.092Z,3.80
2022-09-11T21:04:14.223Z,3.47
2022-09-11T21:06:42.382Z,4.20
2022-09-11T21:09:12.219Z,3.72
2022-09-11T21:11:42.156Z,3.60
2022-09-11T21:14:12.163Z,3.80
2022-09-11T21:16:40.410Z,3.55
2022-09-11T21:19:10.967Z,3.92
2022-09-11T21:21:40.171Z,4.07
2022-09-11T21:24:12.530Z,3.38
2022-09-11T21:26:40.901Z,3.55
2022-09-11T21:29:12.219Z,4.53
2022-09-11T21:31:40.517Z,3.97
2022-09-11T21:34:10.994Z,4.00
2022-09-11T21:36:39.135Z,3.70
2022-09-11T21:39:07.247Z,3.85
2022-09-11T21:41:35.631Z,3.85
2022-09-11T21:44:04.232Z,3.97
2022-09-11T21:46:32.552Z,4.03
2022-09-11T21:49:01.692Z,3.90
2022-09-11T21:51:31.341Z,3.97
2022-09-11T21:54:01.685Z,3.45
2022-09-11T21:56:32.390Z,3.47
2022-09-11T21:59:01.443Z,3.83
2022-09-11T22:01:31.823Z,3.35
2022-09-11T22:04:01.411Z,3.38
2022-09-11T22:06:31.993Z,3.53
2022-09-11T22:09:00.644Z,3.60
2022-09-11T22:11:29.027Z,3.50
2022-09-11T22:13:57.301Z,3.65
2022-09-11T22:16:25.476Z,3.70
2022-09-11T22:18:55.397Z,3.58
2022-09-11T22:21:24.863Z,3.45
2022-09-11T22:23:55.065Z,2.88
2022-09-11T22:26:24.489Z,2.90
2022-09-11T22:28:53.128Z,3.17
2022-09-11T22:31:23.009Z,3.45
2022-09-11T22:33:51.552Z,3.30
2022-09-11T22:36:21.948Z,3.00
2022-09-11T22:38:50.259Z,2.97
2022-09-11T22:41:20.505Z,3.08
2022-09-11T22:43:50.204Z,2.88
2022-09-11T22:46:19.874Z,3.20
2022-09-11T22:48:48.141Z,3.50
2022-09-11T22:51:16.622Z,3.17
2022-09-11T22:53:45.006Z,3.22
2022-09-11T22:56:13.907Z,3.25
2022-09-11T22:58:43.788Z,3.28
2022-09-11T23:01:17.562Z,2.90
2022-09-11T23:03:48.023Z,3.03
2022-09-11T23:06:34.123Z,3.10
2022-09-11T23:09:04.490Z,2.88
2022-09-11T23:11:32.634Z,3.17
2022-09-11T23:14:02.348Z,2.92
2022-09-11T23:16:31.286Z,3.40
2022-09-11T23:19:01.728Z,3.17
2022-09-11T23:21:31.387Z,3.17
2022-09-11T23:24:00.007Z,2.72
2022-09-11T23:26:29.847Z,2.90
2022-09-11T23:28:58.373Z,3.45
2022-09-11T23:31:30.077Z,2.97
2022-09-11T23:34:00.197Z,3.15
2022-09-11T23:36:29.660Z,2.97
2022-09-11T23:38:58.453Z,2.90
2022-09-11T23:41:27.145Z,2.88
2022-09-11T23:43:55.576Z,3.10
2022-09-11T23:46:23.650Z,3.00
2022-09-11T23:48:53.264Z,2.63
2022-09-11T23:51:21.491Z,2.97
2022-09-11T23:53:51.814Z,2.80
2022-09-11T23:56:20.939Z,3.05
2022-09-11T23:58:49.307Z,3.42
